Airfield :
LOGIN :

Register | Disclaimer

   EN    FR    IT 

 










Legend :    VFR   Marginal VFR   IFR   Intensive IFR   Very Intensive IFR
Visi :
Ceiling :
>= 8 km
>= 3000ft
5 to 8 km
1000 to 3000 ft
1500m to 5 km
500 to 1000 ft
800 to 1500m
200 to 500 ft
< 800m
< 200 ft
Symbols :   Thunderstorms  Fog  Heavy snow  Heavy precipitations  Wind > 20 kt
SIGMETs :     Misc.  Thunderstorms  Icing  Turbulence  Mountain Waves  Volcanic Ashes







- Airport Elevation : 1708 ft
- IATA code : SJJ


LQSA - Sarajevo

CURRENT METAR :
  • 160730Z VRB01KT 6000 SCT008 BKN040 19/17 Q1018 NOSIG

EXPIRED METARs :
  • 160700Z VRB01KT 5000 BR SCT007 BKN035 19/17 Q1018 NOSIG
  • 160630Z 00000KT 5000 BR SCT005 BKN035 18/17 Q1018 NOSIG
  • 160600Z VRB02KT 5000 BR SCT004 BKN040 18/17 Q1018 NOSIG
  • 160530Z VRB01KT 5000 BR FEW004 SCT055 17/17 Q1018 NOSIG
  • 160500Z VRB02KT 6000 FEW004 SCT055 17/17 Q1018 NOSIG

TAF TAF LQSA
Valid from the 16 at 06:00 until the 17 at 06:00 UTC


160500Z 1606/1706 30008KT 9999 BKN045 TX25/1613Z TN16/1703Z
TEMPO 1606/1608 5000 BR BKN005
PROB30
TEMPO 1612/1616 RA
No reported NOTAMs for that airfield.



MET'MAP, your aeronautical weather chart ! - Copyright ORBIFLY December 2007 - Disclaimer

ORBIFLY MET'MAP TEAM :

Programming & Development : Alexandra Zaïnal
Concept & Development : Baudouin d'Aumeries
Co-Development & Prog : Marc-Olivier Méhu
Technical & hardware support : Manuel Goepfert

Contact : metmap@orbifly.com




SOURCES & CREDITS :

   NOAA